sensor_id;sensor_type;location;lat;lon;timestamp;P1;durP1;ratioP1;P2;durP2;ratioP2
61785;SDS011;47692;53.714;11.372;2023-09-19T00:00:26;2.78;;;0.75;;
61785;SDS011;47692;53.714;11.372;2023-09-19T00:02:55;2.08;;;0.60;;
61785;SDS011;47692;53.714;11.372;2023-09-19T00:05:22;2.13;;;0.85;;
61785;SDS011;47692;53.714;11.372;2023-09-19T00:07:49;2.90;;;0.70;;
61785;SDS011;47692;53.714;11.372;2023-09-19T00:10:16;2.08;;;0.60;;
61785;SDS011;47692;53.714;11.372;2023-09-19T00:12:44;3.35;;;0.95;;
61785;SDS011;47692;53.714;11.372;2023-09-19T00:15:10;7.25;;;1.25;;
61785;SDS011;47692;53.714;11.372;2023-09-19T00:17:36;3.10;;;0.80;;
61785;SDS011;47692;53.714;11.372;2023-09-19T00:20:02;3.15;;;0.90;;
61785;SDS011;47692;53.714;11.372;2023-09-19T00:22:32;3.05;;;0.95;;
61785;SDS011;47692;53.714;11.372;2023-09-19T00:24:57;3.83;;;1.05;;
61785;SDS011;47692;53.714;11.372;2023-09-19T00:27:22;2.28;;;0.70;;
61785;SDS011;47692;53.714;11.372;2023-09-19T00:29:48;4.47;;;1.25;;
61785;SDS011;47692;53.714;11.372;2023-09-19T00:32:13;1.58;;;0.93;;
61785;SDS011;47692;53.714;11.372;2023-09-19T00:34:38;2.05;;;1.02;;
61785;SDS011;47692;53.714;11.372;2023-09-19T00:37:03;1.55;;;0.88;;
61785;SDS011;47692;53.714;11.372;2023-09-19T00:39:29;2.95;;;1.33;;
61785;SDS011;47692;53.714;11.372;2023-09-19T00:41:56;2.20;;;1.02;;
61785;SDS011;47692;53.714;11.372;2023-09-19T00:44:21;1.85;;;1.05;;
61785;SDS011;47692;53.714;11.372;2023-09-19T00:46:48;3.03;;;1.15;;
61785;SDS011;47692;53.714;11.372;2023-09-19T00:49:15;2.25;;;1.30;;
61785;SDS011;47692;53.714;11.372;2023-09-19T00:51:40;2.47;;;1.38;;
61785;SDS011;47692;53.714;11.372;2023-09-19T00:54:10;2.42;;;1.13;;
61785;SDS011;47692;53.714;11.372;2023-09-19T00:56:38;2.85;;;1.05;;
61785;SDS011;47692;53.714;11.372;2023-09-19T00:59:05;3.20;;;1.42;;
61785;SDS011;47692;53.714;11.372;2023-09-19T01:01:31;2.83;;;1.23;;
61785;SDS011;47692;53.714;11.372;2023-09-19T01:03:57;4.07;;;1.70;;
61785;SDS011;47692;53.714;11.372;2023-09-19T01:06:23;2.78;;;1.40;;
61785;SDS011;47692;53.714;11.372;2023-09-19T01:08:48;2.80;;;1.02;;
61785;SDS011;47692;53.714;11.372;2023-09-19T01:11:21;3.45;;;1.30;;
61785;SDS011;47692;53.714;11.372;2023-09-19T01:13:58;3.03;;;1.38;;
61785;SDS011;47692;53.714;11.372;2023-09-19T01:16:35;5.80;;;1.40;;
61785;SDS011;47692;53.714;11.372;2023-09-19T01:24:10;3.03;;;1.40;;
61785;SDS011;47692;53.714;11.372;2023-09-19T01:29:41;2.88;;;1.40;;
61785;SDS011;47692;53.714;11.372;2023-09-19T01:32:09;4.65;;;1.45;;
61785;SDS011;47692;53.714;11.372;2023-09-19T01:37:14;3.60;;;1.52;;
61785;SDS011;47692;53.714;11.372;2023-09-19T01:39:44;6.75;;;1.25;;
61785;SDS011;47692;53.714;11.372;2023-09-19T01:45:13;6.22;;;1.70;;
61785;SDS011;47692;53.714;11.372;2023-09-19T01:47:49;4.90;;;1.67;;
61785;SDS011;47692;53.714;11.372;2023-09-19T01:53:04;3.92;;;1.63;;
61785;SDS011;47692;53.714;11.372;2023-09-19T01:55:36;6.38;;;2.00;;
61785;SDS011;47692;53.714;11.372;2023-09-19T01:58:08;3.53;;;1.80;;
61785;SDS011;47692;53.714;11.372;2023-09-19T02:00:46;9.27;;;2.30;;
61785;SDS011;47692;53.714;11.372;2023-09-19T02:03:13;2.60;;;1.63;;
61785;SDS011;47692;53.714;11.372;2023-09-19T02:05:38;5.07;;;2.03;;
61785;SDS011;47692;53.714;11.372;2023-09-19T02:08:04;5.47;;;2.10;;
61785;SDS011;47692;53.714;11.372;2023-09-19T02:10:30;5.85;;;2.08;;
61785;SDS011;47692;53.714;11.372;2023-09-19T02:12:55;4.50;;;2.15;;
61785;SDS011;47692;53.714;11.372;2023-09-19T02:15:21;5.53;;;2.10;;
61785;SDS011;47692;53.714;11.372;2023-09-19T02:17:47;5.20;;;2.20;;
61785;SDS011;47692;53.714;11.372;2023-09-19T02:20:12;5.35;;;2.15;;
61785;SDS011;47692;53.714;11.372;2023-09-19T02:22:40;7.65;;;2.60;;
61785;SDS011;47692;53.714;11.372;2023-09-19T02:25:06;6.22;;;2.42;;
61785;SDS011;47692;53.714;11.372;2023-09-19T02:27:33;3.10;;;2.10;;
61785;SDS011;47692;53.714;11.372;2023-09-19T02:29:58;3.95;;;2.45;;
61785;SDS011;47692;53.714;11.372;2023-09-19T02:32:24;9.02;;;2.70;;
61785;SDS011;47692;53.714;11.372;2023-09-19T02:34:49;5.22;;;2.25;;
61785;SDS011;47692;53.714;11.372;2023-09-19T02:37:16;3.67;;;2.53;;
61785;SDS011;47692;53.714;11.372;2023-09-19T02:39:44;5.68;;;2.15;;
61785;SDS011;47692;53.714;11.372;2023-09-19T02:42:09;3.85;;;2.28;;
61785;SDS011;47692;53.714;11.372;2023-09-19T02:44:35;5.68;;;2.50;;
61785;SDS011;47692;53.714;11.372;2023-09-19T02:47:00;3.88;;;2.40;;
61785;SDS011;47692;53.714;11.372;2023-09-19T02:49:26;5.13;;;2.78;;
61785;SDS011;47692;53.714;11.372;2023-09-19T02:51:51;4.18;;;2.03;;
61785;SDS011;47692;53.714;11.372;2023-09-19T02:54:17;3.97;;;2.70;;
61785;SDS011;47692;53.714;11.372;2023-09-19T02:56:42;3.65;;;2.50;;
61785;SDS011;47692;53.714;11.372;2023-09-19T02:59:08;4.40;;;2.88;;
61785;SDS011;47692;53.714;11.372;2023-09-19T03:01:35;6.03;;;2.97;;
61785;SDS011;47692;53.714;11.372;2023-09-19T03:04:02;4.22;;;2.60;;
61785;SDS011;47692;53.714;11.372;2023-09-19T03:06:27;6.43;;;2.63;;
61785;SDS011;47692;53.714;11.372;2023-09-19T03:08:55;6.68;;;2.50;;
61785;SDS011;47692;53.714;11.372;2023-09-19T03:11:21;7.10;;;2.97;;
61785;SDS011;47692;53.714;11.372;2023-09-19T03:13:51;5.25;;;2.80;;
61785;SDS011;47692;53.714;11.372;2023-09-19T03:16:18;7.32;;;2.80;;
61785;SDS011;47692;53.714;11.372;2023-09-19T03:18:46;7.95;;;2.92;;
61785;SDS011;47692;53.714;11.372;2023-09-19T03:21:13;7.38;;;2.92;;
61785;SDS011;47692;53.714;11.372;2023-09-19T03:23:39;5.90;;;2.97;;
61785;SDS011;47692;53.714;11.372;2023-09-19T03:26:05;6.65;;;2.88;;
61785;SDS011;47692;53.714;11.372;2023-09-19T03:28:32;7.80;;;3.20;;
61785;SDS011;47692;53.714;11.372;2023-09-19T03:31:01;6.25;;;3.50;;
61785;SDS011;47692;53.714;11.372;2023-09-19T03:33:28;5.60;;;3.15;;
61785;SDS011;47692;53.714;11.372;2023-09-19T03:35:56;5.90;;;3.10;;
61785;SDS011;47692;53.714;11.372;2023-09-19T03:38:23;6.95;;;3.10;;
61785;SDS011;47692;53.714;11.372;2023-09-19T03:40:48;11.52;;;3.08;;
61785;SDS011;47692;53.714;11.372;2023-09-19T03:43:14;8.98;;;3.35;;
61785;SDS011;47692;53.714;11.372;2023-09-19T03:45:39;7.30;;;3.08;;
61785;SDS011;47692;53.714;11.372;2023-09-19T03:48:11;4.95;;;2.80;;
61785;SDS011;47692;53.714;11.372;2023-09-19T03:50:36;5.20;;;2.70;;
61785;SDS011;47692;53.714;11.372;2023-09-19T03:53:02;7.05;;;3.08;;
61785;SDS011;47692;53.714;11.372;2023-09-19T03:55:28;6.57;;;3.28;;
61785;SDS011;47692;53.714;11.372;2023-09-19T03:57:54;4.93;;;3.30;;
61785;SDS011;47692;53.714;11.372;2023-09-19T04:00:20;10.77;;;3.40;;
61785;SDS011;47692;53.714;11.372;2023-09-19T04:02:47;6.93;;;3.20;;
61785;SDS011;47692;53.714;11.372;2023-09-19T04:05:13;5.13;;;2.92;;
61785;SDS011;47692;53.714;11.372;2023-09-19T04:07:38;4.93;;;3.03;;
61785;SDS011;47692;53.714;11.372;2023-09-19T04:10:04;4.38;;;2.78;;
61785;SDS011;47692;53.714;11.372;2023-09-19T04:12:29;5.68;;;3.00;;
61785;SDS011;47692;53.714;11.372;2023-09-19T04:14:55;6.00;;;2.75;;
61785;SDS011;47692;53.714;11.372;2023-09-19T04:17:20;4.78;;;2.72;;
61785;SDS011;47692;53.714;11.372;2023-09-19T04:19:45;7.28;;;3.00;;
61785;SDS011;47692;53.714;11.372;2023-09-19T04:22:11;4.75;;;2.58;;
61785;SDS011;47692;53.714;11.372;2023-09-19T04:24:37;4.05;;;2.70;;
61785;SDS011;47692;53.714;11.372;2023-09-19T04:27:03;6.53;;;2.60;;
61785;SDS011;47692;53.714;11.372;2023-09-19T04:29:29;7.63;;;2.80;;
61785;SDS011;47692;53.714;11.372;2023-09-19T04:31:55;9.75;;;2.78;;
61785;SDS011;47692;53.714;11.372;2023-09-19T04:34:22;6.18;;;2.85;;
61785;SDS011;47692;53.714;11.372;2023-09-19T04:36:49;5.18;;;2.72;;
61785;SDS011;47692;53.714;11.372;2023-09-19T04:39:14;7.07;;;3.05;;
61785;SDS011;47692;53.714;11.372;2023-09-19T04:41:40;6.05;;;2.67;;
61785;SDS011;47692;53.714;11.372;2023-09-19T04:44:06;10.95;;;3.05;;
61785;SDS011;47692;53.714;11.372;2023-09-19T04:46:32;7.07;;;2.88;;
61785;SDS011;47692;53.714;11.372;2023-09-19T04:48:57;3.42;;;2.22;;
61785;SDS011;47692;53.714;11.372;2023-09-19T04:51:23;7.35;;;2.40;;
61785;SDS011;47692;53.714;11.372;2023-09-19T04:53:48;7.15;;;2.13;;
61785;SDS011;47692;53.714;11.372;2023-09-19T04:56:14;6.60;;;2.47;;
61785;SDS011;47692;53.714;11.372;2023-09-19T04:58:40;6.95;;;2.70;;
61785;SDS011;47692;53.714;11.372;2023-09-19T05:01:05;6.93;;;2.67;;
61785;SDS011;47692;53.714;11.372;2023-09-19T05:03:30;5.15;;;2.40;;
61785;SDS011;47692;53.714;11.372;2023-09-19T05:05:56;5.22;;;2.05;;
61785;SDS011;47692;53.714;11.372;2023-09-19T05:08:21;5.88;;;2.08;;
61785;SDS011;47692;53.714;11.372;2023-09-19T05:10:47;4.72;;;1.95;;
61785;SDS011;47692;53.714;11.372;2023-09-19T05:13:13;4.68;;;1.88;;
61785;SDS011;47692;53.714;11.372;2023-09-19T05:15:39;6.13;;;1.90;;
61785;SDS011;47692;53.714;11.372;2023-09-19T05:18:05;8.20;;;2.72;;
61785;SDS011;47692;53.714;11.372;2023-09-19T05:20:31;3.40;;;1.60;;
61785;SDS011;47692;53.714;11.372;2023-09-19T05:23:01;3.40;;;1.48;;
61785;SDS011;47692;53.714;11.372;2023-09-19T05:25:34;3.42;;;1.20;;
61785;SDS011;47692;53.714;11.372;2023-09-19T05:28:07;4.70;;;1.60;;
61785;SDS011;47692;53.714;11.372;2023-09-19T05:30:33;6.65;;;1.35;;
61785;SDS011;47692;53.714;11.372;2023-09-19T05:33:01;6.72;;;1.75;;
61785;SDS011;47692;53.714;11.372;2023-09-19T05:35:27;2.85;;;1.13;;
61785;SDS011;47692;53.714;11.372;2023-09-19T05:37:52;4.38;;;1.17;;
61785;SDS011;47692;53.714;11.372;2023-09-19T05:40:20;4.22;;;1.40;;
61785;SDS011;47692;53.714;11.372;2023-09-19T05:42:46;4.28;;;1.00;;
61785;SDS011;47692;53.714;11.372;2023-09-19T05:45:12;8.15;;;1.20;;
61785;SDS011;47692;53.714;11.372;2023-09-19T05:47:39;3.17;;;0.90;;
61785;SDS011;47692;53.714;11.372;2023-09-19T05:50:10;4.68;;;1.10;;
61785;SDS011;47692;53.714;11.372;2023-09-19T05:52:37;5.78;;;1.70;;
61785;SDS011;47692;53.714;11.372;2023-09-19T05:55:05;6.43;;;1.40;;
61785;SDS011;47692;53.714;11.372;2023-09-19T05:57:32;4.95;;;1.20;;
61785;SDS011;47692;53.714;11.372;2023-09-19T05:59:58;7.18;;;1.30;;
61785;SDS011;47692;53.714;11.372;2023-09-19T06:02:24;5.88;;;1.33;;
61785;SDS011;47692;53.714;11.372;2023-09-19T06:04:53;5.50;;;1.23;;
61785;SDS011;47692;53.714;11.372;2023-09-19T06:07:20;4.22;;;1.02;;
61785;SDS011;47692;53.714;11.372;2023-09-19T06:09:47;4.85;;;1.20;;
61785;SDS011;47692;53.714;11.372;2023-09-19T06:12:12;4.65;;;1.48;;
61785;SDS011;47692;53.714;11.372;2023-09-19T06:14:42;8.18;;;1.63;;
61785;SDS011;47692;53.714;11.372;2023-09-19T06:17:08;5.22;;;1.58;;
61785;SDS011;47692;53.714;11.372;2023-09-19T06:19:33;7.10;;;1.13;;
61785;SDS011;47692;53.714;11.372;2023-09-19T06:21:59;3.78;;;1.00;;
61785;SDS011;47692;53.714;11.372;2023-09-19T06:24:24;3.40;;;0.93;;
61785;SDS011;47692;53.714;11.372;2023-09-19T06:26:50;5.95;;;1.42;;
61785;SDS011;47692;53.714;11.372;2023-09-19T06:29:17;8.00;;;1.10;;
61785;SDS011;47692;53.714;11.372;2023-09-19T06:31:43;6.45;;;1.10;;
61785;SDS011;47692;53.714;11.372;2023-09-19T06:34:12;7.70;;;0.77;;
61785;SDS011;47692;53.714;11.372;2023-09-19T06:36:40;4.47;;;1.30;;
61785;SDS011;47692;53.714;11.372;2023-09-19T06:39:06;4.88;;;1.00;;
61785;SDS011;47692;53.714;11.372;2023-09-19T06:41:31;6.18;;;1.30;;
61785;SDS011;47692;53.714;11.372;2023-09-19T06:43:57;5.20;;;0.93;;
61785;SDS011;47692;53.714;11.372;2023-09-19T06:46:22;4.25;;;0.95;;
61785;SDS011;47692;53.714;11.372;2023-09-19T06:48:48;5.15;;;1.42;;
61785;SDS011;47692;53.714;11.372;2023-09-19T06:51:14;5.43;;;1.58;;
61785;SDS011;47692;53.714;11.372;2023-09-19T06:53:41;9.43;;;1.17;;
61785;SDS011;47692;53.714;11.372;2023-09-19T06:56:06;6.55;;;1.10;;
61785;SDS011;47692;53.714;11.372;2023-09-19T06:58:32;10.55;;;1.52;;
61785;SDS011;47692;53.714;11.372;2023-09-19T07:00:57;5.68;;;1.33;;
61785;SDS011;47692;53.714;11.372;2023-09-19T07:03:22;2.60;;;0.88;;
61785;SDS011;47692;53.714;11.372;2023-09-19T07:05:51;6.07;;;1.13;;
61785;SDS011;47692;53.714;11.372;2023-09-19T07:08:17;6.63;;;1.20;;
61785;SDS011;47692;53.714;11.372;2023-09-19T07:10:43;7.63;;;1.40;;
61785;SDS011;47692;53.714;11.372;2023-09-19T07:13:17;7.82;;;1.33;;
61785;SDS011;47692;53.714;11.372;2023-09-19T07:15:43;7.43;;;1.25;;
61785;SDS011;47692;53.714;11.372;2023-09-19T07:18:12;7.82;;;1.50;;
61785;SDS011;47692;53.714;11.372;2023-09-19T07:20:40;4.30;;;1.30;;
61785;SDS011;47692;53.714;11.372;2023-09-19T07:23:10;4.00;;;1.23;;
61785;SDS011;47692;53.714;11.372;2023-09-19T07:25:39;3.35;;;1.30;;
61785;SDS011;47692;53.714;11.372;2023-09-19T07:28:04;6.85;;;1.67;;
61785;SDS011;47692;53.714;11.372;2023-09-19T07:30:29;6.32;;;1.17;;
61785;SDS011;47692;53.714;11.372;2023-09-19T07:32:55;5.65;;;1.10;;
61785;SDS011;47692;53.714;11.372;2023-09-19T07:35:20;5.25;;;1.30;;
61785;SDS011;47692;53.714;11.372;2023-09-19T07:37:46;4.80;;;1.10;;
61785;SDS011;47692;53.714;11.372;2023-09-19T07:40:15;6.10;;;1.48;;
61785;SDS011;47692;53.714;11.372;2023-09-19T07:42:41;8.82;;;2.58;;
61785;SDS011;47692;53.714;11.372;2023-09-19T07:45:07;4.53;;;1.20;;
61785;SDS011;47692;53.714;11.372;2023-09-19T07:47:33;6.75;;;1.40;;
61785;SDS011;47692;53.714;11.372;2023-09-19T07:49:59;5.43;;;1.15;;
61785;SDS011;47692;53.714;11.372;2023-09-19T07:52:27;9.45;;;1.48;;
61785;SDS011;47692;53.714;11.372;2023-09-19T07:54:53;8.77;;;1.40;;
61785;SDS011;47692;53.714;11.372;2023-09-19T07:57:18;3.80;;;1.02;;
61785;SDS011;47692;53.714;11.372;2023-09-19T07:59:45;6.80;;;1.63;;
61785;SDS011;47692;53.714;11.372;2023-09-19T08:02:10;6.57;;;1.35;;
61785;SDS011;47692;53.714;11.372;2023-09-19T08:04:41;8.63;;;1.27;;
61785;SDS011;47692;53.714;11.372;2023-09-19T08:07:07;6.45;;;1.10;;
61785;SDS011;47692;53.714;11.372;2023-09-19T08:09:33;7.80;;;1.60;;
61785;SDS011;47692;53.714;11.372;2023-09-19T08:11:59;6.05;;;1.30;;
61785;SDS011;47692;53.714;11.372;2023-09-19T08:14:27;8.02;;;1.40;;
61785;SDS011;47692;53.714;11.372;2023-09-19T08:16:56;4.93;;;1.92;;
61785;SDS011;47692;53.714;11.372;2023-09-19T08:19:23;10.45;;;1.65;;
61785;SDS011;47692;53.714;11.372;2023-09-19T08:21:48;8.10;;;1.50;;
61785;SDS011;47692;53.714;11.372;2023-09-19T08:24:14;5.30;;;1.40;;
61785;SDS011;47692;53.714;11.372;2023-09-19T08:26:40;8.82;;;1.60;;
61785;SDS011;47692;53.714;11.372;2023-09-19T08:29:05;5.45;;;1.48;;
61785;SDS011;47692;53.714;11.372;2023-09-19T08:31:32;8.45;;;1.45;;
61785;SDS011;47692;53.714;11.372;2023-09-19T08:33:58;5.38;;;1.80;;
61785;SDS011;47692;53.714;11.372;2023-09-19T08:36:24;6.50;;;1.73;;
61785;SDS011;47692;53.714;11.372;2023-09-19T08:38:50;8.07;;;2.00;;
61785;SDS011;47692;53.714;11.372;2023-09-19T08:41:16;6.88;;;1.92;;
61785;SDS011;47692;53.714;11.372;2023-09-19T08:43:42;7.97;;;1.30;;
61785;SDS011;47692;53.714;11.372;2023-09-19T08:46:11;9.10;;;1.67;;
61785;SDS011;47692;53.714;11.372;2023-09-19T08:48:54;9.27;;;2.08;;
61785;SDS011;47692;53.714;11.372;2023-09-19T08:51:44;6.93;;;1.60;;
61785;SDS011;47692;53.714;11.372;2023-09-19T08:54:24;10.27;;;1.63;;
61785;SDS011;47692;53.714;11.372;2023-09-19T08:56:54;5.68;;;1.60;;
61785;SDS011;47692;53.714;11.372;2023-09-19T08:59:22;8.77;;;1.70;;
61785;SDS011;47692;53.714;11.372;2023-09-19T09:01:52;7.35;;;2.20;;
61785;SDS011;47692;53.714;11.372;2023-09-19T09:04:19;9.30;;;1.83;;
61785;SDS011;47692;53.714;11.372;2023-09-19T09:06:47;7.88;;;1.80;;
61785;SDS011;47692;53.714;11.372;2023-09-19T09:09:18;7.72;;;1.83;;
61785;SDS011;47692;53.714;11.372;2023-09-19T09:11:43;4.78;;;1.92;;
61785;SDS011;47692;53.714;11.372;2023-09-19T09:14:08;8.25;;;1.90;;
61785;SDS011;47692;53.714;11.372;2023-09-19T09:16:34;5.10;;;1.60;;
61785;SDS011;47692;53.714;11.372;2023-09-19T09:18:59;7.50;;;1.98;;
61785;SDS011;47692;53.714;11.372;2023-09-19T09:21:26;5.32;;;1.90;;
61785;SDS011;47692;53.714;11.372;2023-09-19T09:23:51;8.43;;;2.28;;
61785;SDS011;47692;53.714;11.372;2023-09-19T09:26:33;12.23;;;2.35;;
61785;SDS011;47692;53.714;11.372;2023-09-19T09:29:07;9.48;;;2.17;;
61785;SDS011;47692;53.714;11.372;2023-09-19T09:31:33;9.02;;;2.08;;
61785;SDS011;47692;53.714;11.372;2023-09-19T09:33:58;9.45;;;1.75;;
61785;SDS011;47692;53.714;11.372;2023-09-19T09:36:34;9.27;;;1.95;;
61785;SDS011;47692;53.714;11.372;2023-09-19T09:39:01;8.52;;;2.20;;
61785;SDS011;47692;53.714;11.372;2023-09-19T09:49:27;8.70;;;1.77;;
61785;SDS011;47692;53.714;11.372;2023-09-19T09:52:05;6.97;;;2.10;;
61785;SDS011;47692;53.714;11.372;2023-09-19T09:54:32;4.43;;;1.83;;
61785;SDS011;47692;53.714;11.372;2023-09-19T09:57:06;7.53;;;1.67;;
61785;SDS011;47692;53.714;11.372;2023-09-19T10:02:28;9.18;;;1.88;;
61785;SDS011;47692;53.714;11.372;2023-09-19T10:04:55;10.05;;;1.70;;
61785;SDS011;47692;53.714;11.372;2023-09-19T10:07:40;7.78;;;1.85;;
61785;SDS011;47692;53.714;11.372;2023-09-19T10:10:08;7.57;;;1.65;;
61785;SDS011;47692;53.714;11.372;2023-09-19T10:12:46;4.50;;;1.60;;
61785;SDS011;47692;53.714;11.372;2023-09-19T10:15:13;5.78;;;1.60;;
61785;SDS011;47692;53.714;11.372;2023-09-19T10:17:44;6.38;;;2.10;;
61785;SDS011;47692;53.714;11.372;2023-09-19T10:20:17;6.85;;;1.42;;
61785;SDS011;47692;53.714;11.372;2023-09-19T10:22:48;5.90;;;1.50;;
61785;SDS011;47692;53.714;11.372;2023-09-19T10:25:24;8.70;;;1.73;;
61785;SDS011;47692;53.714;11.372;2023-09-19T10:27:51;6.72;;;1.63;;
61785;SDS011;47692;53.714;11.372;2023-09-19T10:30:21;7.15;;;1.75;;
61785;SDS011;47692;53.714;11.372;2023-09-19T10:32:49;8.52;;;1.92;;
61785;SDS011;47692;53.714;11.372;2023-09-19T10:35:24;7.00;;;1.40;;
61785;SDS011;47692;53.714;11.372;2023-09-19T10:37:50;5.88;;;2.00;;
61785;SDS011;47692;53.714;11.372;2023-09-19T10:40:19;3.80;;;1.35;;
61785;SDS011;47692;53.714;11.372;2023-09-19T10:42:46;7.10;;;1.90;;
61785;SDS011;47692;53.714;11.372;2023-09-19T10:45:13;8.38;;;1.67;;
61785;SDS011;47692;53.714;11.372;2023-09-19T10:47:41;6.03;;;1.42;;
61785;SDS011;47692;53.714;11.372;2023-09-19T10:50:08;6.82;;;1.60;;
61785;SDS011;47692;53.714;11.372;2023-09-19T10:52:34;4.35;;;1.40;;
61785;SDS011;47692;53.714;11.372;2023-09-19T10:55:06;8.73;;;1.43;;
61785;SDS011;47692;53.714;11.372;2023-09-19T10:57:32;5.03;;;1.33;;
61785;SDS011;47692;53.714;11.372;2023-09-19T11:00:03;7.68;;;1.27;;
61785;SDS011;47692;53.714;11.372;2023-09-19T11:14:28;4.18;;;1.10;;
61785;SDS011;47692;53.714;11.372;2023-09-19T11:30:46;5.10;;;1.30;;
61785;SDS011;47692;53.714;11.372;2023-09-19T11:33:29;14.47;;;1.40;;
61785;SDS011;47692;53.714;11.372;2023-09-19T11:35:59;7.20;;;1.25;;
61785;SDS011;47692;53.714;11.372;2023-09-19T11:43:46;6.53;;;1.10;;
61785;SDS011;47692;53.714;11.372;2023-09-19T11:46:26;5.95;;;1.30;;
61785;SDS011;47692;53.714;11.372;2023-09-19T11:48:52;7.55;;;1.50;;
61785;SDS011;47692;53.714;11.372;2023-09-19T11:51:19;6.03;;;1.40;;
61785;SDS011;47692;53.714;11.372;2023-09-19T11:53:55;5.10;;;0.93;;
61785;SDS011;47692;53.714;11.372;2023-09-19T11:56:22;3.92;;;1.35;;
61785;SDS011;47692;53.714;11.372;2023-09-19T11:58:52;5.25;;;1.30;;
61785;SDS011;47692;53.714;11.372;2023-09-19T12:01:29;7.95;;;1.67;;
61785;SDS011;47692;53.714;11.372;2023-09-19T12:03:57;3.00;;;1.10;;
61785;SDS011;47692;53.714;11.372;2023-09-19T12:06:24;9.05;;;1.17;;
61785;SDS011;47692;53.714;11.372;2023-09-19T12:08:51;6.10;;;1.08;;
61785;SDS011;47692;53.714;11.372;2023-09-19T12:11:19;5.28;;;1.20;;
61785;SDS011;47692;53.714;11.372;2023-09-19T12:13:46;8.38;;;1.40;;
61785;SDS011;47692;53.714;11.372;2023-09-19T12:18:43;4.68;;;1.05;;
61785;SDS011;47692;53.714;11.372;2023-09-19T12:24:11;5.65;;;1.25;;
61785;SDS011;47692;53.714;11.372;2023-09-19T12:26:43;5.60;;;1.40;;
61785;SDS011;47692;53.714;11.372;2023-09-19T12:29:14;5.13;;;1.20;;
61785;SDS011;47692;53.714;11.372;2023-09-19T12:32:01;7.18;;;1.50;;
61785;SDS011;47692;53.714;11.372;2023-09-19T12:34:29;4.88;;;1.20;;
61785;SDS011;47692;53.714;11.372;2023-09-19T12:37:09;4.63;;;0.98;;
61785;SDS011;47692;53.714;11.372;2023-09-19T12:39:43;4.97;;;1.02;;
61785;SDS011;47692;53.714;11.372;2023-09-19T12:42:19;8.43;;;1.65;;
61785;SDS011;47692;53.714;11.372;2023-09-19T12:44:50;4.00;;;1.02;;
61785;SDS011;47692;53.714;11.372;2023-09-19T12:47:25;4.45;;;0.98;;
61785;SDS011;47692;53.714;11.372;2023-09-19T12:50:06;7.00;;;1.02;;
61785;SDS011;47692;53.714;11.372;2023-09-19T12:52:36;3.03;;;1.17;;
61785;SDS011;47692;53.714;11.372;2023-09-19T12:55:02;5.55;;;1.27;;
61785;SDS011;47692;53.714;11.372;2023-09-19T12:57:28;3.80;;;1.00;;
61785;SDS011;47692;53.714;11.372;2023-09-19T12:59:57;9.68;;;1.30;;
61785;SDS011;47692;53.714;11.372;2023-09-19T13:02:22;4.55;;;1.02;;
61785;SDS011;47692;53.714;11.372;2023-09-19T13:04:52;4.55;;;1.10;;
61785;SDS011;47692;53.714;11.372;2023-09-19T13:12:36;5.10;;;1.00;;
61785;SDS011;47692;53.714;11.372;2023-09-19T13:15:07;7.13;;;1.30;;
61785;SDS011;47692;53.714;11.372;2023-09-19T13:17:45;3.33;;;1.30;;
61785;SDS011;47692;53.714;11.372;2023-09-19T13:20:24;7.25;;;1.33;;
61785;SDS011;47692;53.714;11.372;2023-09-19T13:22:53;5.97;;;1.33;;
61785;SDS011;47692;53.714;11.372;2023-09-19T13:25:19;5.95;;;1.25;;
61785;SDS011;47692;53.714;11.372;2023-09-19T13:27:52;7.00;;;1.33;;
61785;SDS011;47692;53.714;11.372;2023-09-19T13:30:21;6.53;;;1.52;;
61785;SDS011;47692;53.714;11.372;2023-09-19T13:32:50;5.20;;;1.10;;
61785;SDS011;47692;53.714;11.372;2023-09-19T13:35:17;5.88;;;1.40;;
61785;SDS011;47692;53.714;11.372;2023-09-19T13:37:43;3.20;;;1.10;;
61785;SDS011;47692;53.714;11.372;2023-09-19T13:40:12;6.38;;;1.35;;
61785;SDS011;47692;53.714;11.372;2023-09-19T13:42:39;7.55;;;1.60;;
61785;SDS011;47692;53.714;11.372;2023-09-19T13:45:07;5.18;;;1.10;;
61785;SDS011;47692;53.714;11.372;2023-09-19T13:47:36;9.13;;;1.67;;
61785;SDS011;47692;53.714;11.372;2023-09-19T13:50:03;6.43;;;1.40;;
61785;SDS011;47692;53.714;11.372;2023-09-19T13:52:29;5.75;;;1.50;;
61785;SDS011;47692;53.714;11.372;2023-09-19T13:54:55;4.57;;;1.40;;
61785;SDS011;47692;53.714;11.372;2023-09-19T13:57:22;12.23;;;1.60;;
61785;SDS011;47692;53.714;11.372;2023-09-19T13:59:47;6.75;;;1.67;;
61785;SDS011;47692;53.714;11.372;2023-09-19T14:02:13;9.95;;;1.60;;
61785;SDS011;47692;53.714;11.372;2023-09-19T14:04:39;8.70;;;1.75;;
61785;SDS011;47692;53.714;11.372;2023-09-19T14:07:05;7.82;;;1.77;;
61785;SDS011;47692;53.714;11.372;2023-09-19T14:09:32;4.90;;;1.40;;
61785;SDS011;47692;53.714;11.372;2023-09-19T14:11:58;8.10;;;1.45;;
61785;SDS011;47692;53.714;11.372;2023-09-19T14:14:24;6.80;;;1.38;;
61785;SDS011;47692;53.714;11.372;2023-09-19T14:16:49;5.35;;;1.90;;
61785;SDS011;47692;53.714;11.372;2023-09-19T14:19:15;8.82;;;2.22;;
61785;SDS011;47692;53.714;11.372;2023-09-19T14:21:41;5.07;;;1.55;;
61785;SDS011;47692;53.714;11.372;2023-09-19T14:24:07;3.90;;;1.40;;
61785;SDS011;47692;53.714;11.372;2023-09-19T14:26:37;5.60;;;1.30;;
61785;SDS011;47692;53.714;11.372;2023-09-19T14:29:03;7.90;;;1.40;;
61785;SDS011;47692;53.714;11.372;2023-09-19T14:31:29;8.63;;;2.15;;
61785;SDS011;47692;53.714;11.372;2023-09-19T14:33:55;8.23;;;1.55;;
61785;SDS011;47692;53.714;11.372;2023-09-19T14:36:24;3.42;;;1.20;;
61785;SDS011;47692;53.714;11.372;2023-09-19T14:38:52;6.72;;;1.80;;
61785;SDS011;47692;53.714;11.372;2023-09-19T14:41:22;9.60;;;1.70;;
61785;SDS011;47692;53.714;11.372;2023-09-19T14:43:48;8.95;;;1.92;;
61785;SDS011;47692;53.714;11.372;2023-09-19T14:46:14;6.53;;;1.80;;
61785;SDS011;47692;53.714;11.372;2023-09-19T14:48:39;8.43;;;2.50;;
61785;SDS011;47692;53.714;11.372;2023-09-19T14:51:05;8.00;;;1.85;;
61785;SDS011;47692;53.714;11.372;2023-09-19T14:53:33;8.80;;;2.03;;
61785;SDS011;47692;53.714;11.372;2023-09-19T14:56:02;6.53;;;1.63;;
61785;SDS011;47692;53.714;11.372;2023-09-19T14:58:28;8.75;;;1.67;;
61785;SDS011;47692;53.714;11.372;2023-09-19T15:01:02;8.70;;;1.90;;
61785;SDS011;47692;53.714;11.372;2023-09-19T15:03:28;4.75;;;1.83;;
61785;SDS011;47692;53.714;11.372;2023-09-19T15:05:58;4.10;;;1.48;;
61785;SDS011;47692;53.714;11.372;2023-09-19T15:08:27;7.80;;;2.10;;
61785;SDS011;47692;53.714;11.372;2023-09-19T15:10:52;6.38;;;1.85;;
61785;SDS011;47692;53.714;11.372;2023-09-19T15:13:18;6.15;;;1.58;;
61785;SDS011;47692;53.714;11.372;2023-09-19T15:15:44;5.78;;;1.70;;
61785;SDS011;47692;53.714;11.372;2023-09-19T15:18:12;5.75;;;2.03;;
61785;SDS011;47692;53.714;11.372;2023-09-19T15:20:42;6.18;;;1.98;;
61785;SDS011;47692;53.714;11.372;2023-09-19T15:23:10;6.82;;;2.00;;
61785;SDS011;47692;53.714;11.372;2023-09-19T15:25:36;6.90;;;2.08;;
61785;SDS011;47692;53.714;11.372;2023-09-19T15:28:01;5.05;;;1.90;;
61785;SDS011;47692;53.714;11.372;2023-09-19T15:30:36;6.45;;;1.95;;
61785;SDS011;47692;53.714;11.372;2023-09-19T15:33:03;8.18;;;2.05;;
61785;SDS011;47692;53.714;11.372;2023-09-19T15:35:28;5.05;;;2.28;;
61785;SDS011;47692;53.714;11.372;2023-09-19T15:37:54;7.03;;;2.20;;
61785;SDS011;47692;53.714;11.372;2023-09-19T15:40:21;5.10;;;1.95;;
61785;SDS011;47692;53.714;11.372;2023-09-19T15:42:48;7.90;;;1.90;;
61785;SDS011;47692;53.714;11.372;2023-09-19T15:45:14;9.07;;;2.45;;